Terminal Aerodrome Forecast
Issued by NWS Cleveland, OH

Home | Current Version | Previous Version | Text Only | Print | Product List | Glossary On
Versions: 1 2 3 4 5 6 7 8 9 10 11 12 13 14 15 16 17
000
FTUS41 KCLE 271337 AAA
TAFMFD
TAF AMD
KMFD 271337Z 2714/2812 19005KT 6SM BR SCT005
     FM271430 VRB03KT P6SM SCT250
     FM280800 VRB03KT 1/2SM FG SKC=

USA.gov is the U.S. government's official web portal to all federal, state and local government web resources and services.